createdAt,value
2017-01-22T00:00:21.264Z,91.7
2017-01-22T00:02:27.624Z,91.7
2017-01-22T00:03:30.638Z,91.7
2017-01-22T00:04:33.582Z,91.7
2017-01-22T00:05:37.033Z,91.7
2017-01-22T00:06:39.978Z,91.6
2017-01-22T00:07:42.927Z,91.6
2017-01-22T00:08:46.382Z,91.6
2017-01-22T00:09:49.337Z,91.6
2017-01-22T00:10:52.290Z,91.6
2017-01-22T00:11:55.241Z,91.6
2017-01-22T00:12:58.696Z,91.6
2017-01-22T00:14:01.643Z,91.5
2017-01-22T00:15:04.615Z,91.5
2017-01-22T00:16:08.064Z,91.5
2017-01-22T00:17:11.010Z,91.5
2017-01-22T00:18:14.023Z,91.5
2017-01-22T00:19:16.980Z,91.5
2017-01-22T00:20:20.429Z,91.5
2017-01-22T00:21:23.395Z,91.5
2017-01-22T00:22:26.506Z,91.4
2017-01-22T00:23:29.451Z,91.4
2017-01-22T00:24:32.398Z,91.4
2017-01-22T00:25:35.851Z,91.4
2017-01-22T00:26:38.800Z,91.4
2017-01-22T00:27:41.756Z,91.4
2017-01-22T00:28:45.202Z,91.4
2017-01-22T00:30:51.056Z,91.3
2017-01-22T00:31:54.003Z,91.3
2017-01-22T00:32:57.459Z,91.3
2017-01-22T00:34:00.435Z,91.3
2017-01-22T00:35:03.381Z,91.3
2017-01-22T00:36:06.834Z,91.3
2017-01-22T00:37:09.786Z,91.3
2017-01-22T00:38:12.732Z,91.2
2017-01-22T00:39:15.678Z,91.2
2017-01-22T00:40:19.130Z,91.2
2017-01-22T00:41:22.074Z,91.2
2017-01-22T00:42:25.028Z,91.2
2017-01-22T00:43:28.475Z,91.2
2017-01-22T00:44:31.429Z,91.2
2017-01-22T00:45:34.379Z,91.1
2017-01-22T00:46:37.328Z,91.1
2017-01-22T00:47:40.776Z,91.1
2017-01-22T00:48:43.722Z,91.1
2017-01-22T00:49:46.672Z,91.1
2017-01-22T00:50:50.128Z,91.1
2017-01-22T00:51:53.075Z,91
2017-01-22T00:52:56.025Z,91
2017-01-22T00:53:58.969Z,91
2017-01-22T00:55:02.418Z,91
2017-01-22T00:56:05.366Z,91
2017-01-22T00:57:08.313Z,91
2017-01-22T00:58:11.763Z,90.9
2017-01-22T00:59:14.710Z,90.9
2017-01-22T01:00:17.659Z,90.9
2017-01-22T01:01:20.609Z,90.9
2017-01-22T01:02:24.060Z,90.9
2017-01-22T01:03:26.734Z,90.8
2017-01-22T01:04:30.192Z,90.8
2017-01-22T01:05:33.135Z,90.8
2017-01-22T01:06:36.078Z,90.8
2017-01-22T01:07:39.529Z,90.8
2017-01-22T01:08:42.473Z,90.8
2017-01-22T01:09:45.418Z,90.7
2017-01-22T01:10:48.366Z,90.7
2017-01-22T01:11:51.818Z,90.7
2017-01-22T01:12:54.762Z,90.7
2017-01-22T01:13:57.724Z,90.7
2017-01-22T01:15:01.178Z,90.7
2017-01-22T01:16:04.125Z,90.7
2017-01-22T01:17:07.074Z,90.7
2017-01-22T01:19:13.438Z,90.6
2017-01-22T01:20:16.393Z,90.6
2017-01-22T01:21:19.344Z,90.6
2017-01-22T01:22:22.791Z,90.6
2017-01-22T01:23:25.753Z,90.5
2017-01-22T01:24:28.705Z,90.5
2017-01-22T01:25:31.652Z,90.5
2017-01-22T01:26:35.106Z,90.5
2017-01-22T01:27:38.054Z,90.5
2017-01-22T01:28:41.005Z,90.4
2017-01-22T01:29:43.963Z,90.5
2017-01-22T01:30:47.414Z,90.4
2017-01-22T01:31:50.361Z,90.4
2017-01-22T01:32:53.308Z,90.4
2017-01-22T01:33:56.259Z,90.4
2017-01-22T01:34:59.711Z,90.4
2017-01-22T01:36:02.660Z,90.4
2017-01-22T01:37:05.611Z,90.4
2017-01-22T01:38:09.068Z,90.4
2017-01-22T01:39:12.021Z,90.4
2017-01-22T01:40:14.969Z,90.3
2017-01-22T01:41:17.914Z,90.3
2017-01-22T01:42:20.925Z,90.3
2017-01-22T01:43:24.375Z,90.3
2017-01-22T01:44:27.321Z,90.3
2017-01-22T01:45:30.333Z,90.3
2017-01-22T01:46:33.305Z,90.3
2017-01-22T01:47:36.765Z,90.2
2017-01-22T01:48:39.712Z,90.2
2017-01-22T01:49:42.658Z,90.2
2017-01-22T01:50:45.604Z,90.2
2017-01-22T01:51:49.053Z,90.2
2017-01-22T01:52:52.017Z,90.2
2017-01-22T01:53:54.966Z,90.2
2017-01-22T01:54:58.417Z,90.1
2017-01-22T01:56:01.433Z,90.1
2017-01-22T01:57:04.382Z,90.1
2017-01-22T01:58:07.331Z,90.1
2017-01-22T01:59:10.282Z,90.1
2017-01-22T02:01:16.643Z,90.1
2017-01-22T02:02:19.589Z,90.1
2017-01-22T02:03:23.036Z,90.1
2017-01-22T02:04:25.986Z,90.1
2017-01-22T02:05:28.935Z,90
2017-01-22T02:06:31.913Z,90
2017-01-22T02:07:35.364Z,90
2017-01-22T02:08:38.312Z,90
2017-01-22T02:09:41.258Z,90
2017-01-22T02:10:44.213Z,90
2017-01-22T02:11:47.675Z,90
2017-01-22T02:12:50.623Z,89.9
2017-01-22T02:13:53.571Z,89.9
2017-01-22T02:14:56.521Z,89.9
2017-01-22T02:15:59.977Z,89.9
2017-01-22T02:17:02.924Z,89.9
2017-01-22T02:18:05.867Z,89.8
2017-01-22T02:19:08.811Z,89.8
2017-01-22T02:20:12.258Z,89.8
2017-01-22T02:21:15.198Z,89.8
2017-01-22T02:22:18.143Z,89.8
2017-01-22T02:23:21.092Z,89.8
2017-01-22T02:24:24.546Z,89.7
2017-01-22T02:25:27.494Z,89.8
2017-01-22T02:26:30.451Z,89.8
2017-01-22T02:27:33.401Z,89.7
2017-01-22T02:28:36.852Z,89.7
2017-01-22T02:29:39.802Z,89.7
2017-01-22T02:30:42.753Z,89.7
2017-01-22T02:31:46.207Z,89.7
2017-01-22T02:32:49.227Z,89.7
2017-01-22T02:33:52.183Z,89.7
2017-01-22T02:34:55.295Z,89.7
2017-01-22T02:35:58.242Z,89.6
2017-01-22T02:37:01.186Z,89.6
2017-01-22T02:38:04.643Z,89.6
2017-01-22T02:39:07.594Z,89.6
2017-01-22T02:40:10.710Z,89.6
2017-01-22T02:41:13.655Z,89.6
2017-01-22T02:42:16.600Z,89.6
2017-01-22T02:43:20.078Z,89.6
2017-01-22T02:44:23.023Z,89.6
2017-01-22T02:45:25.968Z,89.6
2017-01-22T02:46:28.917Z,89.6
2017-01-22T02:47:32.367Z,89.6
2017-01-22T02:48:35.315Z,89.6
2017-01-22T02:49:38.260Z,89.6
2017-01-22T02:50:41.210Z,89.6
2017-01-22T02:51:44.662Z,89.6
2017-01-22T02:52:47.609Z,89.6
2017-01-22T02:53:50.561Z,89.6
2017-01-22T02:54:53.504Z,89.5
2017-01-22T02:55:56.954Z,89.5
2017-01-22T02:56:59.904Z,89.5
2017-01-22T02:58:02.848Z,89.5
2017-01-22T02:59:05.797Z,89.5
2017-01-22T03:00:09.248Z,89.5
2017-01-22T03:01:12.201Z,89.5
2017-01-22T03:02:15.150Z,89.5
2017-01-22T03:03:18.095Z,89.5
2017-01-22T03:05:24.453Z,89.5
2017-01-22T03:06:27.406Z,89.5
2017-01-22T03:07:30.354Z,89.5
2017-01-22T03:08:33.833Z,89.4
2017-01-22T03:09:36.783Z,89.4
2017-01-22T03:10:39.726Z,89.4
2017-01-22T03:11:42.675Z,89.4
2017-01-22T03:12:46.126Z,89.4
2017-01-22T03:13:49.073Z,89.4
2017-01-22T03:14:52.017Z,89.4
2017-01-22T03:15:54.958Z,89.4
2017-01-22T03:16:58.401Z,89.4
2017-01-22T03:18:01.349Z,89.4
2017-01-22T03:19:04.295Z,89.4
2017-01-22T03:20:07.246Z,89.4
2017-01-22T03:21:10.700Z,89.4
2017-01-22T03:22:13.658Z,89.4
2017-01-22T03:23:16.664Z,89.4
2017-01-22T03:24:19.608Z,89.4
2017-01-22T03:25:23.057Z,89.4
2017-01-22T03:26:26.000Z,89.4
2017-01-22T03:27:28.947Z,89.4
2017-01-22T03:28:31.894Z,89.4
2017-01-22T03:29:35.341Z,89.4
2017-01-22T03:30:38.292Z,89.3
2017-01-22T03:31:41.243Z,89.3
2017-01-22T03:32:44.193Z,89.3
2017-01-22T03:33:47.643Z,89.3
2017-01-22T03:34:50.592Z,89.3
2017-01-22T03:35:53.537Z,89.3
2017-01-22T03:36:56.482Z,89.3
2017-01-22T03:37:59.930Z,89.2
2017-01-22T03:39:02.877Z,89.2
2017-01-22T03:40:05.821Z,89.2
2017-01-22T03:41:08.773Z,89.2
2017-01-22T03:42:12.227Z,89.2
2017-01-22T03:43:15.167Z,89.2
2017-01-22T03:44:18.108Z,89.2
2017-01-22T03:45:21.056Z,89.2
2017-01-22T03:46:24.503Z,89.2
2017-01-22T03:47:27.514Z,89.2
2017-01-22T03:48:30.461Z,89.2
2017-01-22T03:49:33.406Z,89.2
2017-01-22T03:50:36.349Z,89.2
2017-01-22T03:51:39.799Z,89.2
2017-01-22T03:53:45.653Z,89.1
2017-01-22T03:54:49.104Z,89.1
2017-01-22T03:55:52.050Z,89.1
2017-01-22T03:56:54.998Z,89.1
2017-01-22T03:57:57.946Z,89.1
2017-01-22T03:59:01.393Z,89.1
2017-01-22T04:00:04.340Z,89.1
2017-01-22T04:01:07.291Z,89.1
2017-01-22T04:02:10.238Z,89.1
2017-01-22T04:03:13.689Z,89.1
2017-01-22T04:04:16.705Z,89
2017-01-22T04:05:19.649Z,89
2017-01-22T04:06:22.590Z,89
2017-01-22T04:07:25.535Z,89
2017-01-22T04:08:28.986Z,89
2017-01-22T04:09:31.934Z,89
2017-01-22T04:10:34.883Z,89
2017-01-22T04:11:37.834Z,89
2017-01-22T04:12:41.285Z,89
2017-01-22T04:13:44.231Z,89
2017-01-22T04:14:47.178Z,89
2017-01-22T04:15:50.127Z,89
2017-01-22T04:16:53.573Z,89
2017-01-22T04:18:59.425Z,89
2017-01-22T04:20:02.368Z,89
2017-01-22T04:21:05.819Z,89
2017-01-22T04:23:11.681Z,89
2017-01-22T04:24:14.627Z,89
2017-01-22T04:25:18.075Z,88.9
2017-01-22T04:26:21.021Z,88.9
2017-01-22T04:27:23.963Z,88.9
2017-01-22T04:28:26.933Z,88.9
2017-01-22T04:29:30.383Z,88.9
2017-01-22T04:30:33.332Z,88.8
2017-01-22T04:31:36.274Z,88.8
2017-01-22T04:32:39.217Z,88.8
2017-01-22T04:33:42.663Z,88.8
2017-01-22T04:34:45.607Z,88.8
2017-01-22T04:36:51.457Z,88.8
2017-01-22T04:37:54.907Z,88.8
2017-01-22T04:38:57.856Z,88.8
2017-01-22T04:40:00.798Z,88.8
2017-01-22T04:41:03.746Z,88.8
2017-01-22T04:42:07.198Z,88.8
2017-01-22T04:43:10.146Z,88.8
2017-01-22T04:44:13.093Z,88.8
2017-01-22T04:45:16.034Z,88.8
2017-01-22T04:46:19.486Z,88.8
2017-01-22T04:47:22.435Z,88.8
2017-01-22T04:48:25.380Z,88.8
2017-01-22T04:49:28.327Z,88.8
2017-01-22T04:50:31.774Z,88.8
2017-01-22T04:51:34.719Z,88.7
2017-01-22T04:52:37.674Z,88.7
2017-01-22T04:53:40.621Z,88.7
2017-01-22T04:54:44.069Z,88.7
2017-01-22T04:55:47.020Z,88.7
2017-01-22T04:56:49.970Z,88.7
2017-01-22T04:57:52.915Z,88.7
2017-01-22T04:58:56.359Z,88.7
2017-01-22T04:59:59.306Z,88.7
2017-01-22T05:01:02.251Z,88.7
2017-01-22T05:02:05.213Z,88.7
2017-01-22T05:03:08.165Z,88.7
2017-01-22T05:04:11.615Z,88.7
2017-01-22T05:05:14.559Z,88.7
2017-01-22T05:06:17.859Z,88.6
2017-01-22T05:07:20.803Z,88.6
2017-01-22T05:08:23.748Z,88.6
2017-01-22T05:09:26.695Z,88.6
2017-01-22T05:10:29.640Z,88.6
2017-01-22T05:11:33.094Z,88.6
2017-01-22T05:12:36.042Z,88.6
2017-01-22T05:13:38.987Z,88.6
2017-01-22T05:14:41.937Z,88.6
2017-01-22T05:15:45.412Z,88.6
2017-01-22T05:16:48.356Z,88.6
2017-01-22T05:17:51.303Z,88.6
2017-01-22T05:18:54.246Z,88.6
2017-01-22T05:19:57.695Z,88.6
2017-01-22T05:21:00.642Z,88.6
2017-01-22T05:22:03.586Z,88.6
2017-01-22T05:23:06.531Z,88.5
2017-01-22T05:24:09.475Z,88.5
2017-01-22T05:25:12.996Z,88.5
2017-01-22T05:26:15.940Z,88.5
2017-01-22T05:27:18.888Z,88.5
2017-01-22T05:28:21.835Z,88.5
2017-01-22T05:29:25.284Z,88.5
2017-01-22T05:30:28.229Z,88.5
2017-01-22T05:31:31.175Z,88.5
2017-01-22T05:32:34.123Z,88.5
2017-01-22T05:33:37.069Z,88.5
2017-01-22T05:34:40.515Z,88.5
2017-01-22T05:35:43.462Z,88.5
2017-01-22T05:36:46.409Z,88.5
2017-01-22T05:37:49.349Z,88.5
2017-01-22T05:38:52.800Z,88.5
2017-01-22T05:40:58.656Z,88.5
2017-01-22T05:42:01.597Z,88.5
2017-01-22T05:43:05.046Z,88.5
2017-01-22T05:44:07.993Z,88.5
2017-01-22T05:46:14.351Z,88.5
2017-01-22T05:47:17.296Z,88.5
2017-01-22T05:48:20.408Z,88.5
2017-01-22T05:49:23.352Z,88.5
2017-01-22T05:50:26.296Z,88.5
2017-01-22T05:51:29.241Z,88.5
2017-01-22T05:52:32.718Z,88.5
2017-01-22T05:53:35.668Z,88.5
2017-01-22T05:54:38.614Z,88.5
2017-01-22T05:55:41.556Z,88.4
2017-01-22T05:56:44.502Z,88.4
2017-01-22T05:57:47.953Z,88.4
2017-01-22T05:58:50.897Z,88.4
2017-01-22T05:59:53.843Z,88.4
2017-01-22T06:00:56.792Z,88.4
2017-01-22T06:02:00.245Z,88.4
2017-01-22T06:03:03.194Z,88.4
2017-01-22T06:04:06.144Z,88.4
2017-01-22T06:05:09.094Z,88.4
2017-01-22T06:06:12.546Z,88.3
2017-01-22T06:07:15.490Z,88.3
2017-01-22T06:08:18.437Z,88.3
2017-01-22T06:09:21.411Z,88.3
2017-01-22T06:10:24.359Z,88.3
2017-01-22T06:11:27.805Z,88.3
2017-01-22T06:12:30.748Z,88.3
2017-01-22T06:13:33.690Z,88.3
2017-01-22T06:14:36.635Z,88.3
2017-01-22T06:15:40.084Z,88.3
2017-01-22T06:16:43.028Z,88.3
2017-01-22T06:17:45.973Z,88.3
2017-01-22T06:18:48.978Z,88.3
2017-01-22T06:19:51.923Z,88.3
2017-01-22T06:20:55.371Z,88.3
2017-01-22T06:21:58.318Z,88.3
2017-01-22T06:23:01.072Z,88.3
2017-01-22T06:24:04.552Z,88.3
2017-01-22T06:25:07.497Z,88.3
2017-01-22T06:26:10.441Z,88.3
2017-01-22T06:27:13.385Z,88.3
2017-01-22T06:28:16.832Z,88.3
2017-01-22T06:29:19.774Z,88.4
2017-01-22T06:30:22.749Z,88.4
2017-01-22T06:31:25.693Z,88.4
2017-01-22T06:32:28.639Z,88.4
2017-01-22T06:33:32.089Z,88.4
2017-01-22T06:34:35.034Z,88.4
2017-01-22T06:35:37.977Z,88.4
2017-01-22T06:36:40.930Z,88.4
2017-01-22T06:37:44.377Z,88.4
2017-01-22T06:38:47.322Z,88.4
2017-01-22T06:39:50.267Z,88.4
2017-01-22T06:41:56.690Z,88.4
2017-01-22T06:42:59.634Z,88.5
2017-01-22T06:44:02.579Z,88.5
2017-01-22T06:45:05.523Z,88.5
2017-01-22T06:46:08.469Z,88.5
2017-01-22T06:47:11.919Z,88.5
2017-01-22T06:48:14.867Z,88.5
2017-01-22T06:49:17.812Z,88.5
2017-01-22T06:50:20.759Z,88.5
2017-01-22T06:51:24.209Z,88.5
2017-01-22T06:52:27.153Z,88.5
2017-01-22T06:53:30.124Z,88.6
2017-01-22T06:54:33.065Z,88.6
2017-01-22T06:55:36.018Z,88.6
2017-01-22T06:56:39.472Z,88.6
2017-01-22T06:57:42.421Z,88.6
2017-01-22T06:59:48.273Z,88.6
2017-01-22T07:01:54.628Z,88.6
2017-01-22T07:02:57.572Z,88.6
2017-01-22T07:04:00.516Z,88.6
2017-01-22T07:05:03.969Z,88.7
2017-01-22T07:06:06.912Z,88.7
2017-01-22T07:07:09.856Z,88.7
2017-01-22T07:08:12.803Z,88.7
2017-01-22T07:09:16.253Z,88.7
2017-01-22T07:10:19.194Z,88.7
2017-01-22T07:11:22.139Z,88.7
2017-01-22T07:12:25.086Z,88.8
2017-01-22T07:13:28.030Z,88.8
2017-01-22T07:14:31.479Z,88.8
2017-01-22T07:15:34.420Z,88.8
2017-01-22T07:16:37.363Z,88.8
2017-01-22T07:17:40.305Z,88.8
2017-01-22T07:18:43.756Z,88.8
2017-01-22T07:19:46.702Z,88.8
2017-01-22T07:20:49.649Z,88.8
2017-01-22T07:21:52.594Z,88.8
2017-01-22T07:22:56.041Z,88.8
2017-01-22T07:23:58.987Z,88.9
2017-01-22T07:25:01.933Z,88.9
2017-01-22T07:26:04.953Z,89
2017-01-22T07:27:07.904Z,89
2017-01-22T07:28:11.357Z,89
2017-01-22T07:29:14.301Z,89
2017-01-22T07:30:17.250Z,89
2017-01-22T07:31:20.194Z,89
2017-01-22T07:32:23.141Z,89
2017-01-22T07:33:26.602Z,89
2017-01-22T07:34:29.547Z,89
2017-01-22T07:35:32.496Z,89
2017-01-22T07:36:35.441Z,89
2017-01-22T07:37:38.890Z,89
2017-01-22T07:38:41.840Z,89.1
2017-01-22T07:39:44.783Z,89.1
2017-01-22T07:40:47.730Z,89.1
2017-01-22T07:41:50.744Z,89.1
2017-01-22T07:42:54.190Z,89.1
2017-01-22T07:43:57.135Z,89.1
2017-01-22T07:45:00.079Z,89.1
2017-01-22T07:46:03.032Z,89.1
2017-01-22T07:47:06.479Z,89.1
2017-01-22T07:48:09.425Z,89.1
2017-01-22T07:49:12.370Z,89.1
2017-01-22T07:50:15.313Z,89.1
2017-01-22T07:51:18.761Z,89.1
2017-01-22T07:52:21.706Z,89.1
2017-01-22T07:53:24.649Z,89.1
2017-01-22T07:54:27.593Z,89.1
2017-01-22T07:55:30.538Z,89.1
2017-01-22T07:56:33.988Z,89.1
2017-01-22T07:57:36.937Z,89.1
2017-01-22T07:58:39.880Z,89.1
2017-01-22T08:00:46.234Z,89.1
2017-01-22T08:01:49.179Z,89.1
2017-01-22T08:02:52.125Z,89.1
2017-01-22T08:03:55.072Z,89.1
2017-01-22T08:06:01.431Z,89.1
2017-01-22T08:07:04.379Z,89.1
2017-01-22T08:08:07.321Z,89.1
2017-01-22T08:09:10.766Z,89.2
2017-01-22T08:10:13.778Z,89.2
2017-01-22T08:11:16.721Z,89.2
2017-01-22T08:12:19.665Z,89.2
2017-01-22T08:13:23.113Z,89.2
2017-01-22T08:14:26.058Z,89.2
2017-01-22T08:15:29.006Z,89.2
2017-01-22T08:16:31.957Z,89.3
2017-01-22T08:17:34.898Z,89.3
2017-01-22T08:18:38.372Z,89.3
2017-01-22T08:19:41.324Z,89.3
2017-01-22T08:20:44.271Z,89.3
2017-01-22T08:21:47.219Z,89.3
2017-01-22T08:22:50.681Z,89.4
2017-01-22T08:23:53.623Z,89.4
2017-01-22T08:24:56.570Z,89.4
2017-01-22T08:25:59.514Z,89.4
2017-01-22T08:27:02.964Z,89.4
2017-01-22T08:28:05.910Z,89.4
2017-01-22T08:29:08.852Z,89.4
2017-01-22T08:30:11.795Z,89.5
2017-01-22T08:31:14.743Z,89.5
2017-01-22T08:32:18.198Z,89.5
2017-01-22T08:33:21.144Z,89.5
2017-01-22T08:34:24.087Z,89.5
2017-01-22T08:35:27.034Z,89.5
2017-01-22T08:36:30.481Z,89.5
2017-01-22T08:37:33.430Z,89.6
2017-01-22T08:39:39.285Z,89.6
2017-01-22T08:40:42.731Z,89.6
2017-01-22T08:41:45.673Z,89.6
2017-01-22T08:42:48.616Z,89.7
2017-01-22T08:43:51.561Z,89.7
2017-01-22T08:44:55.010Z,89.7
2017-01-22T08:45:57.961Z,89.7
2017-01-22T08:47:00.915Z,89.7
2017-01-22T08:48:03.865Z,89.7
2017-01-22T08:49:07.311Z,89.8
2017-01-22T08:50:10.258Z,89.8
2017-01-22T08:51:13.205Z,89.8
2017-01-22T08:52:16.152Z,89.8
2017-01-22T08:53:19.607Z,89.8
2017-01-22T08:54:22.553Z,89.8
2017-01-22T08:55:25.501Z,89.8
2017-01-22T08:56:28.452Z,89.8
2017-01-22T08:57:31.903Z,89.8
2017-01-22T08:58:34.851Z,89.9
2017-01-22T08:59:37.798Z,89.9
2017-01-22T09:00:40.745Z,89.9
2017-01-22T09:01:44.206Z,89.9
2017-01-22T09:02:47.155Z,89.9
2017-01-22T09:03:50.099Z,89.9
2017-01-22T09:04:53.107Z,89.9
2017-01-22T09:05:56.052Z,89.9
2017-01-22T09:08:02.407Z,90
2017-01-22T09:09:05.351Z,90
2017-01-22T09:11:11.711Z,90
2017-01-22T09:12:14.658Z,90
2017-01-22T09:13:17.604Z,90.1
2017-01-22T09:14:21.055Z,90.1
2017-01-22T09:15:24.003Z,90.1
2017-01-22T09:16:26.949Z,90.1
2017-01-22T09:17:29.896Z,90.1
2017-01-22T09:18:33.347Z,90.1
2017-01-22T09:19:36.296Z,90.1
2017-01-22T09:20:39.249Z,90.2
2017-01-22T09:21:42.200Z,90.2
2017-01-22T09:22:45.653Z,90.2
2017-01-22T09:23:48.602Z,90.2
2017-01-22T09:24:51.545Z,90.2
2017-01-22T09:25:54.490Z,90.2
2017-01-22T09:26:57.938Z,90.2
2017-01-22T09:28:00.879Z,90.2
2017-01-22T09:29:03.822Z,90.2
2017-01-22T09:30:06.779Z,90.2
2017-01-22T09:31:10.225Z,90.2
2017-01-22T09:32:13.170Z,90.2
2017-01-22T09:33:16.116Z,90.2
2017-01-22T09:34:19.064Z,90.2
2017-01-22T09:35:22.509Z,90.2
2017-01-22T09:36:25.462Z,90.2
2017-01-22T09:37:28.575Z,90.3
2017-01-22T09:38:31.522Z,90.3
2017-01-22T09:39:34.473Z,90.3
2017-01-22T09:40:37.922Z,90.3
2017-01-22T09:41:40.871Z,90.3
2017-01-22T09:42:43.817Z,90.3
2017-01-22T09:43:46.765Z,90.3
2017-01-22T09:44:50.215Z,90.3
2017-01-22T09:45:53.164Z,90.3
2017-01-22T09:46:56.112Z,90.4
2017-01-22T09:47:59.563Z,90.4
2017-01-22T09:49:02.510Z,90.4
2017-01-22T09:50:05.458Z,90.4
2017-01-22T09:51:08.406Z,90.4
2017-01-22T09:52:11.856Z,90.4
2017-01-22T09:53:14.803Z,90.5
2017-01-22T09:54:17.758Z,90.5
2017-01-22T09:55:20.705Z,90.5
2017-01-22T09:56:24.157Z,90.5
2017-01-22T09:57:27.109Z,90.5
2017-01-22T09:58:30.057Z,90.5
2017-01-22T10:00:36.583Z,90.6
2017-01-22T10:01:39.540Z,90.6
2017-01-22T10:02:42.485Z,90.6
2017-01-22T10:03:45.434Z,90.6
2017-01-22T10:04:48.379Z,90.6
2017-01-22T10:05:51.893Z,90.6
2017-01-22T10:06:54.838Z,90.7
2017-01-22T10:07:57.799Z,90.7
2017-01-22T10:10:04.161Z,90.7
2017-01-22T10:11:07.112Z,90.7
2017-01-22T10:12:10.055Z,90.7
2017-01-22T10:13:13.502Z,90.7
2017-01-22T10:14:16.445Z,90.7
2017-01-22T10:15:19.396Z,90.7
2017-01-22T10:16:22.342Z,90.8
2017-01-22T10:17:25.789Z,90.8
2017-01-22T10:18:28.738Z,90.8
2017-01-22T10:19:31.685Z,90.8
2017-01-22T10:20:34.637Z,90.8
2017-01-22T10:21:38.087Z,90.8
2017-01-22T10:22:41.032Z,90.8
2017-01-22T10:23:43.979Z,90.8
2017-01-22T10:24:47.430Z,90.8
2017-01-22T10:26:53.287Z,90.8
2017-01-22T10:27:56.737Z,90.8
2017-01-22T10:28:59.684Z,90.9
2017-01-22T10:30:02.629Z,90.9
2017-01-22T10:31:05.585Z,90.9
2017-01-22T10:32:09.035Z,90.9
2017-01-22T10:33:11.982Z,90.9
2017-01-22T10:34:14.936Z,90.9
2017-01-22T10:35:17.884Z,90.9
2017-01-22T10:36:21.501Z,90.9
2017-01-22T10:37:24.445Z,90.9
2017-01-22T10:38:27.388Z,90.9
2017-01-22T10:39:30.332Z,91
2017-01-22T10:40:33.783Z,91
2017-01-22T10:41:36.790Z,91
2017-01-22T10:42:39.738Z,91
2017-01-22T10:43:42.683Z,91
2017-01-22T10:44:46.129Z,91
2017-01-22T10:45:49.081Z,91
2017-01-22T10:46:52.258Z,91
2017-01-22T10:47:55.205Z,91
2017-01-22T10:48:58.151Z,91
2017-01-22T10:50:01.600Z,91
2017-01-22T10:51:04.549Z,91
2017-01-22T10:52:07.558Z,91
2017-01-22T10:53:10.501Z,91
2017-01-22T10:54:13.946Z,91
2017-01-22T10:55:16.888Z,91
2017-01-22T10:56:19.833Z,91.1
2017-01-22T10:57:22.779Z,91.1
2017-01-22T10:58:26.229Z,91.1
2017-01-22T10:59:29.176Z,91.1
2017-01-22T11:00:32.127Z,91.1
2017-01-22T11:01:35.571Z,91.1
2017-01-22T11:02:38.520Z,91.1
2017-01-22T11:03:41.462Z,91.1
2017-01-22T11:04:44.404Z,91.1
2017-01-22T11:05:47.850Z,91.2
2017-01-22T11:06:50.798Z,91.2
2017-01-22T11:07:53.746Z,91.2
2017-01-22T11:08:57.200Z,91.2
2017-01-22T11:10:00.144Z,91.2
2017-01-22T11:11:03.090Z,91.2
2017-01-22T11:12:06.047Z,91.2
2017-01-22T11:13:09.500Z,91.2
2017-01-22T11:14:12.446Z,91.2
2017-01-22T11:15:15.457Z,91.2
2017-01-22T11:16:18.407Z,91.3
2017-01-22T11:17:21.855Z,91.3
2017-01-22T11:18:24.801Z,91.3
2017-01-22T11:19:27.744Z,91.3
2017-01-22T11:20:31.193Z,91.3
2017-01-22T11:21:34.141Z,91.3
2017-01-22T11:22:37.085Z,91.3
2017-01-22T11:23:40.027Z,91.3
2017-01-22T11:24:43.479Z,91.3
2017-01-22T11:25:46.430Z,91.3
2017-01-22T11:26:49.379Z,91.3
2017-01-22T11:27:52.827Z,91.3
2017-01-22T11:28:55.772Z,91.3
2017-01-22T11:29:58.774Z,91.3
2017-01-22T11:31:01.718Z,91.3
2017-01-22T11:32:05.172Z,91.3
2017-01-22T11:33:08.135Z,91.3
2017-01-22T11:34:11.078Z,91.3
2017-01-22T11:35:14.522Z,91.4
2017-01-22T11:36:17.466Z,91.4
2017-01-22T11:37:20.411Z,91.4
2017-01-22T11:38:23.358Z,91.4
2017-01-22T11:39:26.805Z,91.4
2017-01-22T11:40:29.752Z,91.4
2017-01-22T11:42:36.149Z,91.4
2017-01-22T11:43:39.095Z,91.4
2017-01-22T11:44:42.049Z,91.5
2017-01-22T11:45:44.996Z,91.5
2017-01-22T11:46:48.448Z,91.4
2017-01-22T11:47:51.397Z,91.5
2017-01-22T11:48:54.342Z,91.5
2017-01-22T11:49:57.790Z,91.5
2017-01-22T11:51:00.737Z,91.5
2017-01-22T11:52:03.684Z,91.5
2017-01-22T11:53:07.131Z,91.5
2017-01-22T11:54:10.075Z,91.5
2017-01-22T11:55:13.190Z,91.5
2017-01-22T11:56:16.130Z,91.5
2017-01-22T11:57:19.097Z,91.5
2017-01-22T11:58:22.547Z,91.5
2017-01-22T11:59:25.495Z,91.5
2017-01-22T12:00:28.440Z,91.4
2017-01-22T12:01:31.889Z,91.5
2017-01-22T12:02:34.833Z,91.5
2017-01-22T12:03:37.781Z,91.5
2017-01-22T12:04:41.226Z,91.5
2017-01-22T12:06:47.083Z,91.5
2017-01-22T12:07:50.556Z,91.5
2017-01-22T12:08:53.506Z,91.5
2017-01-22T12:09:56.452Z,91.5
2017-01-22T12:10:59.398Z,91.5
2017-01-22T12:12:02.852Z,91.5
2017-01-22T12:13:05.859Z,91.5
2017-01-22T12:14:08.805Z,91.5
2017-01-22T12:15:12.250Z,91.5
2017-01-22T12:16:15.202Z,91.5
2017-01-22T12:17:18.154Z,91.5
2017-01-22T12:18:21.100Z,91.5
2017-01-22T12:19:24.548Z,91.5
2017-01-22T12:20:27.491Z,91.6
2017-01-22T12:21:30.437Z,91.6
2017-01-22T12:22:33.885Z,91.6
2017-01-22T12:23:36.834Z,91.6
2017-01-22T12:24:39.778Z,91.6
2017-01-22T12:25:43.230Z,91.6
2017-01-22T12:26:46.177Z,91.6
2017-01-22T12:27:49.121Z,91.6
2017-01-22T12:28:52.569Z,91.6
2017-01-22T12:29:55.522Z,91.7
2017-01-22T12:30:58.470Z,91.7
2017-01-22T12:32:01.419Z,91.7
2017-01-22T12:33:04.867Z,91.7
2017-01-22T12:34:07.812Z,91.7
2017-01-22T12:35:10.757Z,91.7
2017-01-22T12:36:14.202Z,91.8
2017-01-22T12:37:17.149Z,91.8
2017-01-22T12:38:20.096Z,91.8
2017-01-22T12:39:23.552Z,91.8
2017-01-22T12:40:26.500Z,91.8
2017-01-22T12:41:29.448Z,91.8
2017-01-22T12:42:32.392Z,91.8
2017-01-22T12:44:38.754Z,91.8
2017-01-22T12:45:41.705Z,91.9
2017-01-22T12:46:45.151Z,91.9
2017-01-22T12:47:48.162Z,91.9
2017-01-22T12:48:51.106Z,91.9
2017-01-22T12:49:54.552Z,91.9
2017-01-22T12:50:57.497Z,91.9
2017-01-22T12:52:00.443Z,91.9
2017-01-22T12:53:03.893Z,91.9
2017-01-22T12:54:06.838Z,91.9
2017-01-22T12:55:09.784Z,91.9
2017-01-22T12:56:12.730Z,91.9
2017-01-22T12:57:16.176Z,92
2017-01-22T12:58:19.123Z,92
2017-01-22T12:59:22.070Z,92
2017-01-22T13:00:25.521Z,92
2017-01-22T13:01:28.473Z,92
2017-01-22T13:02:31.422Z,92
2017-01-22T13:03:34.877Z,92
2017-01-22T13:04:37.818Z,92
2017-01-22T13:05:40.768Z,92
2017-01-22T13:06:43.782Z,92
2017-01-22T13:07:47.229Z,92
2017-01-22T13:08:50.184Z,92
2017-01-22T13:09:53.192Z,92
2017-01-22T13:11:59.551Z,92
2017-01-22T13:13:02.513Z,92
2017-01-22T13:14:05.455Z,92
2017-01-22T13:15:08.910Z,92
2017-01-22T13:16:11.858Z,92
2017-01-22T13:17:14.805Z,92
2017-01-22T13:18:18.253Z,92
2017-01-22T13:19:21.201Z,92
2017-01-22T13:20:24.174Z,92
2017-01-22T13:21:27.120Z,92
2017-01-22T13:22:30.577Z,92
2017-01-22T13:23:33.524Z,92
2017-01-22T13:24:36.470Z,92
2017-01-22T13:25:39.917Z,92
2017-01-22T13:26:42.860Z,92
2017-01-22T13:27:45.812Z,92.1
2017-01-22T13:28:48.755Z,92
2017-01-22T13:29:52.207Z,92
2017-01-22T13:30:55.160Z,92
2017-01-22T13:31:58.103Z,92
2017-01-22T13:33:01.553Z,92
2017-01-22T13:34:04.664Z,92
2017-01-22T13:35:07.641Z,92
2017-01-22T13:36:10.587Z,92.1
2017-01-22T13:37:13.535Z,92.1
2017-01-22T13:38:16.985Z,92.1
2017-01-22T13:39:19.934Z,92.1
2017-01-22T13:41:26.311Z,92.1
2017-01-22T13:42:29.257Z,92.1
2017-01-22T13:43:32.204Z,92.1
2017-01-22T13:45:38.562Z,92.1
2017-01-22T13:46:41.574Z,92.1
2017-01-22T13:47:44.593Z,92.1
2017-01-22T13:48:48.044Z,92.1
2017-01-22T13:49:50.991Z,92.1
2017-01-22T13:51:57.349Z,92
2017-01-22T13:53:00.295Z,92
2017-01-22T13:54:03.245Z,92
2017-01-22T13:55:06.190Z,92
2017-01-22T13:56:09.648Z,92
2017-01-22T13:57:12.594Z,92
2017-01-22T13:58:15.667Z,92
2017-01-22T13:59:18.611Z,92
2017-01-22T14:00:22.067Z,92
2017-01-22T14:01:25.018Z,92
2017-01-22T14:02:27.963Z,92
2017-01-22T14:03:31.413Z,92
2017-01-22T14:04:34.366Z,92
2017-01-22T14:05:37.306Z,92
2017-01-22T14:06:40.262Z,92
2017-01-22T14:07:43.712Z,92
2017-01-22T14:08:46.703Z,92
2017-01-22T14:09:49.651Z,92
2017-01-22T14:10:52.596Z,92
2017-01-22T14:11:56.048Z,92
2017-01-22T14:12:58.995Z,92
2017-01-22T14:14:01.940Z,92
2017-01-22T14:15:05.390Z,92
2017-01-22T14:16:08.337Z,92
2017-01-22T14:17:11.281Z,92
2017-01-22T14:19:17.639Z,92
2017-01-22T14:20:20.585Z,92
2017-01-22T14:21:23.526Z,92
2017-01-22T14:22:26.994Z,92
2017-01-22T14:23:29.937Z,92
2017-01-22T14:24:32.946Z,92
2017-01-22T14:25:35.916Z,92
2017-01-22T14:26:39.367Z,92
2017-01-22T14:27:42.310Z,92
2017-01-22T14:28:45.254Z,91.9
2017-01-22T14:29:48.704Z,91.9
2017-01-22T14:30:51.650Z,91.9
2017-01-22T14:31:54.594Z,91.9
2017-01-22T14:32:57.542Z,91.9
2017-01-22T14:34:00.994Z,91.9
2017-01-22T14:35:03.945Z,91.9
2017-01-22T14:36:06.891Z,91.9
2017-01-22T14:37:10.337Z,91.9
2017-01-22T14:38:13.286Z,91.9
2017-01-22T14:39:16.236Z,91.9
2017-01-22T14:40:19.183Z,91.9